createdAt,value
2017-07-21T00:00:12.853Z,17.12
2017-07-21T00:02:38.768Z,17.28
2017-07-21T00:05:04.613Z,17.09
2017-07-21T00:07:30.445Z,17.11
2017-07-21T00:09:56.260Z,17.18
2017-07-21T00:12:22.077Z,17.09
2017-07-21T00:14:47.912Z,17.00
2017-07-21T00:17:13.762Z,16.98
2017-07-21T00:19:39.693Z,16.96
2017-07-21T00:22:05.514Z,16.86
2017-07-21T00:24:31.388Z,16.88
2017-07-21T00:26:57.233Z,16.78
2017-07-21T00:29:23.044Z,16.85
2017-07-21T00:31:48.883Z,16.86
2017-07-21T00:34:14.700Z,16.87
2017-07-21T00:36:40.507Z,16.85
2017-07-21T00:39:06.361Z,16.80
2017-07-21T00:41:32.255Z,16.75
2017-07-21T00:43:58.899Z,16.75
2017-07-21T00:46:24.832Z,16.59
2017-07-21T00:48:50.744Z,16.71
2017-07-21T00:51:16.627Z,16.62
2017-07-21T00:53:42.473Z,16.65
2017-07-21T00:56:08.285Z,16.62
2017-07-21T00:58:34.081Z,16.61
2017-07-21T01:00:59.898Z,16.63
2017-07-21T01:03:25.802Z,16.71
2017-07-21T01:05:51.674Z,16.67
2017-07-21T01:08:17.500Z,16.65
2017-07-21T01:10:43.374Z,16.61
2017-07-21T01:13:09.226Z,16.65
2017-07-21T01:15:35.045Z,16.58
2017-07-21T01:18:00.873Z,16.59
2017-07-21T01:20:33.469Z,16.58
2017-07-21T01:22:59.367Z,16.65
2017-07-21T01:25:25.190Z,16.72
2017-07-21T01:27:51.053Z,16.57
2017-07-21T01:30:16.953Z,16.50
2017-07-21T01:32:42.850Z,16.47
2017-07-21T01:35:09.009Z,16.42
2017-07-21T01:37:34.873Z,16.41
2017-07-21T01:40:00.723Z,16.28
2017-07-21T01:42:26.567Z,16.30
2017-07-21T01:44:53.470Z,16.24
2017-07-21T01:47:19.323Z,16.39
2017-07-21T01:49:45.220Z,16.41
2017-07-21T01:52:11.039Z,16.33
2017-07-21T01:54:36.876Z,16.12
2017-07-21T01:57:02.729Z,16.17
2017-07-21T01:59:28.632Z,16.14
2017-07-21T02:01:54.497Z,16.09
2017-07-21T02:04:20.335Z,16.11
2017-07-21T02:06:46.180Z,15.94
2017-07-21T02:09:12.058Z,16.07
2017-07-21T02:11:37.893Z,16.06
2017-07-21T02:14:03.692Z,16.03
2017-07-21T02:16:29.736Z,16.14
2017-07-21T02:18:55.647Z,16.13
2017-07-21T02:21:21.514Z,16.07
2017-07-21T02:23:47.393Z,15.22
2017-07-21T02:26:13.197Z,15.78
2017-07-21T02:28:39.064Z,15.83
2017-07-21T02:31:04.984Z,15.78
2017-07-21T02:33:30.811Z,15.92
2017-07-21T02:35:56.690Z,16.02
2017-07-21T02:38:22.560Z,16.04
2017-07-21T02:40:48.438Z,15.91
2017-07-21T02:43:14.279Z,15.46
2017-07-21T02:45:40.161Z,15.43
2017-07-21T02:48:06.046Z,15.66
2017-07-21T02:50:31.917Z,15.64
2017-07-21T02:52:57.742Z,15.68
2017-07-21T02:55:23.567Z,15.40
2017-07-21T02:57:49.401Z,15.58
2017-07-21T03:00:15.253Z,15.69
2017-07-21T03:02:41.085Z,15.63
2017-07-21T03:05:06.902Z,15.58
2017-07-21T03:07:32.770Z,15.54
2017-07-21T03:09:58.694Z,15.56
2017-07-21T03:12:24.579Z,15.42
2017-07-21T03:14:50.396Z,15.55
2017-07-21T03:17:16.218Z,15.61
2017-07-21T03:19:42.049Z,15.60
2017-07-21T03:22:07.980Z,15.52
2017-07-21T03:24:33.818Z,15.40
2017-07-21T03:26:59.680Z,15.09
2017-07-21T03:29:25.498Z,15.49
2017-07-21T03:31:51.328Z,15.57
2017-07-21T03:34:17.376Z,15.48
2017-07-21T03:36:43.288Z,15.44
2017-07-21T03:39:09.155Z,15.50
2017-07-21T03:41:35.007Z,15.44
2017-07-21T03:44:01.038Z,15.34
2017-07-21T03:46:27.033Z,15.28
2017-07-21T03:48:52.868Z,15.06
2017-07-21T03:51:18.645Z,15.17
2017-07-21T03:53:44.465Z,15.15
2017-07-21T03:56:10.305Z,15.31
2017-07-21T03:58:36.088Z,15.12
2017-07-21T04:01:01.892Z,15.23
2017-07-21T04:03:27.780Z,15.24
2017-07-21T04:05:53.588Z,15.07
2017-07-21T04:08:19.440Z,15.19
2017-07-21T04:10:45.284Z,15.19
2017-07-21T04:13:11.153Z,15.18
2017-07-21T04:15:37.028Z,15.17
2017-07-21T04:18:02.875Z,15.30
2017-07-21T04:20:28.677Z,15.31
2017-07-21T04:22:54.505Z,15.50
2017-07-21T04:25:20.320Z,15.62
2017-07-21T04:27:46.117Z,15.72
2017-07-21T04:30:11.986Z,15.95
2017-07-21T04:32:37.808Z,15.93
2017-07-21T04:35:03.668Z,15.92
2017-07-21T04:37:29.545Z,16.00
2017-07-21T04:39:55.501Z,16.06
2017-07-21T04:42:21.545Z,15.84
2017-07-21T04:44:47.417Z,15.90
2017-07-21T04:47:13.305Z,15.99
2017-07-21T04:49:39.136Z,16.11
2017-07-21T04:52:04.929Z,15.88
2017-07-21T04:54:30.720Z,16.07
2017-07-21T04:56:57.565Z,16.22
2017-07-21T04:59:23.352Z,16.37
2017-07-21T05:01:49.183Z,16.48
2017-07-21T05:04:15.052Z,16.31
2017-07-21T05:06:40.836Z,16.83
2017-07-21T05:09:06.745Z,16.60
2017-07-21T05:11:32.595Z,16.78
2017-07-21T05:13:58.479Z,16.93
2017-07-21T05:16:24.288Z,16.93
2017-07-21T05:18:50.253Z,16.87
2017-07-21T05:21:16.537Z,16.73
2017-07-21T05:23:42.393Z,16.97
2017-07-21T05:26:08.265Z,17.29
2017-07-21T05:28:35.644Z,17.72
2017-07-21T05:31:02.548Z,17.77
2017-07-21T05:33:29.136Z,18.04
2017-07-21T05:35:55.025Z,17.76
2017-07-21T05:38:20.851Z,18.14
2017-07-21T05:40:46.664Z,17.74
2017-07-21T05:43:13.214Z,17.78
2017-07-21T05:45:39.021Z,17.92
2017-07-21T05:48:06.728Z,18.20
2017-07-21T05:50:32.673Z,18.41
2017-07-21T05:52:58.517Z,18.57
2017-07-21T05:55:25.186Z,18.91
2017-07-21T05:57:51.065Z,19.05
2017-07-21T06:00:16.940Z,18.82
2017-07-21T06:02:42.913Z,18.37
2017-07-21T06:05:09.269Z,18.35
2017-07-21T06:07:35.132Z,19.01
2017-07-21T06:10:00.941Z,19.10
2017-07-21T06:12:27.360Z,19.20
2017-07-21T06:14:54.003Z,19.48
2017-07-21T06:17:19.837Z,19.46
2017-07-21T06:19:46.409Z,19.56
2017-07-21T06:22:12.265Z,19.82
2017-07-21T06:24:38.176Z,19.67
2017-07-21T06:27:03.960Z,19.66
2017-07-21T06:29:29.757Z,19.55
2017-07-21T06:31:55.557Z,19.36
2017-07-21T06:34:21.351Z,19.67
2017-07-21T06:36:47.234Z,19.46
2017-07-21T06:39:14.049Z,19.49
2017-07-21T06:41:39.845Z,19.91
2017-07-21T06:44:06.448Z,19.98
2017-07-21T06:46:39.150Z,20.20
2017-07-21T06:49:06.526Z,20.51
2017-07-21T06:51:33.168Z,20.55
2017-07-21T06:54:00.561Z,20.68
2017-07-21T06:56:26.489Z,21.29
2017-07-21T06:58:52.314Z,21.56
2017-07-21T07:01:18.161Z,21.18
2017-07-21T07:03:44.683Z,21.46
2017-07-21T07:06:10.524Z,21.11
2017-07-21T07:08:36.393Z,21.04
2017-07-21T07:11:02.213Z,21.34
2017-07-21T07:13:28.048Z,21.26
2017-07-21T07:15:53.924Z,21.42
2017-07-21T07:18:19.905Z,21.58
2017-07-21T07:20:45.831Z,21.64
2017-07-21T07:23:11.640Z,21.69
2017-07-21T07:25:37.483Z,21.63
2017-07-21T07:28:03.301Z,21.62
2017-07-21T07:30:29.124Z,21.84
2017-07-21T07:32:55.055Z,22.06
2017-07-21T07:35:20.939Z,22.08
2017-07-21T07:37:46.856Z,22.18
2017-07-21T07:40:12.869Z,22.50
2017-07-21T07:42:38.791Z,22.33
2017-07-21T07:45:04.686Z,22.97
2017-07-21T07:47:30.540Z,23.10
2017-07-21T07:49:56.337Z,23.41
2017-07-21T07:52:22.159Z,23.57
2017-07-21T07:54:47.994Z,23.79
2017-07-21T07:57:14.026Z,23.54
2017-07-21T07:59:39.880Z,23.61
2017-07-21T08:02:05.783Z,23.56
2017-07-21T08:04:31.793Z,23.99
2017-07-21T08:06:57.704Z,24.29
2017-07-21T08:09:23.733Z,24.91
2017-07-21T08:11:49.653Z,24.73
2017-07-21T08:14:15.583Z,25.03
2017-07-21T08:16:41.593Z,24.18
2017-07-21T08:19:07.412Z,24.02
2017-07-21T08:21:33.228Z,23.92
2017-07-21T08:23:59.032Z,23.41
2017-07-21T08:26:24.881Z,23.10
2017-07-21T08:28:50.799Z,23.59
2017-07-21T08:31:16.628Z,23.46
2017-07-21T08:33:42.447Z,23.71
2017-07-21T08:36:08.310Z,23.58
2017-07-21T08:38:34.172Z,23.83
2017-07-21T08:41:00.015Z,23.53
2017-07-21T08:43:26.037Z,23.75
2017-07-21T08:45:51.951Z,23.66
2017-07-21T08:48:17.777Z,23.54
2017-07-21T08:50:43.674Z,23.70
2017-07-21T08:53:09.501Z,23.84
2017-07-21T08:55:35.396Z,23.81
2017-07-21T08:58:01.255Z,24.01
2017-07-21T09:00:27.134Z,23.63
2017-07-21T09:02:52.979Z,24.05
2017-07-21T09:05:19.013Z,25.14
2017-07-21T09:07:44.943Z,25.27
2017-07-21T09:10:10.841Z,24.23
2017-07-21T09:12:36.836Z,24.62
2017-07-21T09:15:02.686Z,25.41
2017-07-21T09:17:28.527Z,26.08
2017-07-21T09:19:54.422Z,24.80
2017-07-21T09:22:20.284Z,24.75
2017-07-21T09:24:46.136Z,24.64
2017-07-21T09:27:11.942Z,25.13
2017-07-21T09:29:37.825Z,25.46
2017-07-21T09:32:03.836Z,25.35
2017-07-21T09:34:29.746Z,25.12
2017-07-21T09:36:55.552Z,25.21
2017-07-21T09:39:21.415Z,25.20
2017-07-21T09:41:47.239Z,25.67
2017-07-21T09:44:13.109Z,26.54
2017-07-21T09:46:38.996Z,25.65
2017-07-21T09:49:04.937Z,26.57
2017-07-21T09:51:30.721Z,27.31
2017-07-21T09:53:56.561Z,25.89
2017-07-21T09:56:22.403Z,25.42
2017-07-21T09:58:48.241Z,25.79
2017-07-21T10:01:14.160Z,25.61
2017-07-21T10:03:39.965Z,25.38
2017-07-21T10:06:05.924Z,25.84
2017-07-21T10:08:31.787Z,26.05
2017-07-21T10:10:57.678Z,25.95
2017-07-21T10:13:23.524Z,26.09
2017-07-21T10:15:49.390Z,26.02
2017-07-21T10:18:15.358Z,26.62
2017-07-21T10:20:41.239Z,27.29
2017-07-21T10:23:07.142Z,28.40
2017-07-21T10:25:32.995Z,28.72
2017-07-21T10:27:59.096Z,28.36
2017-07-21T10:30:25.108Z,27.67
2017-07-21T10:32:51.026Z,26.85
2017-07-21T10:35:16.878Z,27.48
2017-07-21T10:37:42.761Z,27.44
2017-07-21T10:40:08.590Z,26.81
2017-07-21T10:42:34.648Z,26.79
2017-07-21T10:45:00.618Z,27.33
2017-07-21T10:47:26.468Z,28.59
2017-07-21T10:49:52.475Z,28.03
2017-07-21T10:52:18.379Z,27.70
2017-07-21T10:54:44.250Z,28.19
2017-07-21T10:57:10.043Z,28.22
2017-07-21T10:59:35.844Z,29.68
2017-07-21T11:02:01.716Z,29.39
2017-07-21T11:04:27.529Z,28.34
2017-07-21T11:06:53.333Z,29.86
2017-07-21T11:09:19.380Z,30.79
2017-07-21T11:11:45.204Z,30.93
2017-07-21T11:14:11.273Z,31.75
2017-07-21T11:16:37.115Z,31.09
2017-07-21T11:19:03.047Z,29.40
2017-07-21T11:21:28.870Z,31.31
2017-07-21T11:23:54.703Z,30.66
2017-07-21T11:26:20.549Z,30.51
2017-07-21T11:28:46.372Z,29.95
2017-07-21T11:31:12.179Z,29.60
2017-07-21T11:33:37.999Z,29.20
2017-07-21T11:36:04.839Z,30.73
2017-07-21T11:38:30.690Z,31.51
2017-07-21T11:40:56.693Z,31.42
2017-07-21T11:43:22.562Z,31.43
2017-07-21T11:45:48.540Z,31.00
2017-07-21T11:48:14.382Z,30.34
2017-07-21T11:50:40.321Z,31.69
2017-07-21T11:53:06.147Z,32.02
2017-07-21T11:55:32.014Z,32.09
2017-07-21T11:57:57.874Z,31.07
2017-07-21T12:00:23.759Z,30.39
2017-07-21T12:02:49.641Z,29.78
2017-07-21T12:05:15.498Z,28.45
2017-07-21T12:07:41.312Z,28.08
2017-07-21T12:10:07.399Z,28.30
2017-07-21T12:12:33.266Z,29.35
2017-07-21T12:14:59.127Z,30.28
2017-07-21T12:17:24.994Z,30.98
2017-07-21T12:19:50.822Z,30.78
2017-07-21T12:22:16.675Z,30.71
2017-07-21T12:24:43.232Z,30.72
2017-07-21T12:27:09.102Z,31.67
2017-07-21T12:29:35.021Z,31.05
2017-07-21T12:32:00.922Z,31.54
2017-07-21T12:34:26.786Z,31.30
2017-07-21T12:36:52.691Z,29.70
2017-07-21T12:39:18.611Z,31.16
2017-07-21T12:41:44.564Z,32.77
2017-07-21T12:44:10.363Z,33.33
2017-07-21T12:46:36.251Z,32.08
2017-07-21T12:49:02.135Z,33.04
2017-07-21T12:51:27.980Z,32.38
2017-07-21T12:53:53.849Z,31.38
2017-07-21T12:56:19.705Z,30.19
2017-07-21T12:58:45.605Z,31.92
2017-07-21T13:01:11.444Z,33.01
2017-07-21T13:03:37.338Z,31.33
2017-07-21T13:06:03.186Z,30.63
2017-07-21T13:08:29.071Z,31.59
2017-07-21T13:10:54.967Z,31.54
2017-07-21T13:13:20.826Z,31.43
2017-07-21T13:15:46.716Z,33.08
2017-07-21T13:18:12.628Z,33.17
2017-07-21T13:23:04.392Z,31.09
2017-07-21T13:25:30.304Z,32.62
2017-07-21T13:27:56.172Z,32.07
2017-07-21T13:30:22.051Z,31.11
2017-07-21T13:32:47.989Z,31.95
2017-07-21T13:35:13.801Z,33.43
2017-07-21T13:37:39.741Z,33.81
2017-07-21T13:40:05.683Z,34.16
2017-07-21T13:42:31.538Z,33.92
2017-07-21T13:44:57.573Z,34.11
2017-07-21T13:47:23.467Z,34.14
2017-07-21T13:49:49.383Z,34.18
2017-07-21T13:52:15.532Z,34.53
2017-07-21T13:54:41.393Z,33.28
2017-07-21T13:57:07.211Z,32.38
2017-07-21T13:59:33.852Z,32.11
2017-07-21T14:01:59.697Z,30.47
2017-07-21T14:04:25.685Z,30.97
2017-07-21T14:06:51.505Z,31.51
2017-07-21T14:09:17.339Z,30.57
2017-07-21T14:11:43.216Z,31.79
2017-07-21T14:14:09.143Z,31.80
2017-07-21T14:16:34.989Z,31.53
2017-07-21T14:19:00.808Z,31.11
2017-07-21T14:21:26.696Z,31.31
2017-07-21T14:23:52.605Z,30.97
2017-07-21T14:26:18.447Z,31.32
2017-07-21T14:28:44.869Z,32.63
2017-07-21T14:31:10.760Z,32.25
2017-07-21T14:33:36.606Z,31.53
2017-07-21T14:36:02.574Z,30.61
2017-07-21T14:38:28.438Z,31.10
2017-07-21T14:40:54.394Z,32.60
2017-07-21T14:43:20.234Z,30.37
2017-07-21T14:45:46.049Z,30.39
2017-07-21T14:48:11.916Z,29.65
2017-07-21T14:50:37.948Z,30.60
2017-07-21T14:53:03.924Z,31.89
2017-07-21T14:55:29.791Z,32.59
2017-07-21T14:57:55.737Z,32.92
2017-07-21T15:00:21.602Z,32.64
2017-07-21T15:02:47.649Z,31.31
2017-07-21T15:05:13.645Z,30.76
2017-07-21T15:07:39.522Z,30.41
2017-07-21T15:10:05.410Z,30.33
2017-07-21T15:12:31.505Z,29.93
2017-07-21T15:14:57.405Z,31.17
2017-07-21T15:17:23.269Z,32.02
2017-07-21T15:19:49.116Z,32.38
2017-07-21T15:22:15.042Z,32.20
2017-07-21T15:24:41.033Z,31.84
2017-07-21T15:27:06.976Z,31.86
2017-07-21T15:29:32.844Z,32.22
2017-07-21T15:31:58.662Z,32.90
2017-07-21T15:34:24.492Z,32.83
2017-07-21T15:36:50.342Z,32.47
2017-07-21T15:39:16.251Z,32.32
2017-07-21T15:41:43.242Z,32.56
2017-07-21T15:44:09.227Z,32.39
2017-07-21T15:46:35.297Z,32.87
2017-07-21T15:49:01.163Z,32.38
2017-07-21T15:51:27.079Z,32.52
2017-07-21T15:53:53.133Z,32.37
2017-07-21T15:56:19.119Z,31.68
2017-07-21T15:58:44.987Z,31.32
2017-07-21T16:01:10.883Z,30.35
2017-07-21T16:03:36.755Z,30.06
2017-07-21T16:06:02.581Z,30.62
2017-07-21T16:08:28.394Z,31.28
2017-07-21T16:10:54.285Z,31.39
2017-07-21T16:13:20.156Z,31.59
2017-07-21T16:15:45.993Z,31.45
2017-07-21T16:18:11.843Z,31.55
2017-07-21T16:20:37.652Z,31.08
2017-07-21T16:23:03.494Z,31.27
2017-07-21T16:25:29.908Z,30.38
2017-07-21T16:27:55.716Z,30.61
2017-07-21T16:30:21.545Z,30.82
2017-07-21T16:32:47.457Z,30.34
2017-07-21T16:35:13.452Z,30.31
2017-07-21T16:37:39.389Z,29.92
2017-07-21T16:40:05.248Z,29.60
2017-07-21T16:42:31.086Z,29.69
2017-07-21T16:44:57.498Z,29.62
2017-07-21T16:47:23.328Z,29.23
2017-07-21T16:49:49.146Z,29.15
2017-07-21T16:52:15.067Z,29.04
2017-07-21T16:54:40.925Z,28.78
2017-07-21T16:57:06.776Z,28.82
2017-07-21T16:59:32.617Z,28.73
2017-07-21T17:01:58.685Z,28.41
2017-07-21T17:04:24.648Z,28.52
2017-07-21T17:06:50.545Z,28.33
2017-07-21T17:09:16.454Z,28.42
2017-07-21T17:11:42.299Z,28.24
2017-07-21T17:14:08.181Z,28.26
2017-07-21T17:16:34.177Z,28.22
2017-07-21T17:18:59.987Z,27.94
2017-07-21T17:21:25.802Z,27.78
2017-07-21T17:23:51.699Z,27.78
2017-07-21T17:26:17.580Z,27.82
2017-07-21T17:28:43.414Z,27.74
2017-07-21T17:31:09.283Z,27.66
2017-07-21T17:33:35.095Z,27.61
2017-07-21T17:36:00.972Z,27.42
2017-07-21T17:38:26.921Z,27.26
2017-07-21T17:40:52.763Z,27.18
2017-07-21T17:43:18.627Z,27.02
2017-07-21T17:45:44.551Z,26.95
2017-07-21T17:48:10.481Z,26.80
2017-07-21T17:50:36.415Z,26.77
2017-07-21T17:53:02.314Z,26.81
2017-07-21T17:55:28.282Z,26.74
2017-07-21T17:57:54.159Z,26.62
2017-07-21T18:00:20.153Z,26.61
2017-07-21T18:02:46.217Z,26.68
2017-07-21T18:05:12.087Z,26.62
2017-07-21T18:07:37.955Z,26.51
2017-07-21T18:10:03.830Z,26.48
2017-07-21T18:12:29.676Z,26.49
2017-07-21T18:14:55.703Z,26.34
2017-07-21T18:17:21.636Z,26.38
2017-07-21T18:19:47.521Z,26.30
2017-07-21T18:22:13.395Z,26.29
2017-07-21T18:24:39.346Z,26.14
2017-07-21T18:27:05.223Z,25.99
2017-07-21T18:29:31.127Z,25.92
2017-07-21T18:31:57.032Z,25.90
2017-07-21T18:34:22.888Z,25.81
2017-07-21T18:36:48.833Z,25.88
2017-07-21T18:39:14.693Z,25.96
2017-07-21T18:41:40.568Z,25.91
2017-07-21T18:44:06.461Z,25.25
2017-07-21T18:46:32.348Z,25.15
2017-07-21T18:48:58.197Z,24.67
2017-07-21T18:51:24.157Z,24.50
2017-07-21T18:53:50.026Z,24.46
2017-07-21T18:56:15.997Z,24.10
2017-07-21T18:58:41.861Z,23.99
2017-07-21T19:01:07.924Z,23.64
2017-07-21T19:03:33.848Z,23.04
2017-07-21T19:05:59.673Z,21.65
2017-07-21T19:08:25.547Z,20.35
2017-07-21T19:10:51.504Z,18.81
2017-07-21T19:13:17.357Z,18.70
2017-07-21T19:15:43.177Z,18.99
2017-07-21T19:18:09.041Z,18.66
2017-07-21T19:20:35.062Z,18.08
2017-07-21T19:23:01.037Z,17.30
2017-07-21T19:25:26.918Z,-142.13
2017-07-21T19:27:52.830Z,-142.13
2017-07-21T19:30:18.745Z,-142.13
2017-07-21T19:32:44.669Z,-142.13
2017-07-21T19:35:10.465Z,-142.13
2017-07-21T19:37:36.410Z,-142.13
2017-07-21T19:40:02.433Z,-142.13
2017-07-21T19:42:28.392Z,-142.13
2017-07-21T19:44:54.266Z,-142.13
2017-07-21T19:47:20.267Z,-142.13
2017-07-21T19:49:46.132Z,-142.13
2017-07-21T19:52:12.136Z,-142.13
2017-07-21T19:54:43.064Z,-142.13
2017-07-21T19:57:08.895Z,-142.13
2017-07-21T19:59:34.842Z,-142.13
2017-07-21T20:02:02.495Z,-142.13
2017-07-21T20:04:30.436Z,-142.13
2017-07-21T20:06:56.248Z,-142.13
2017-07-21T20:09:22.076Z,-142.13
2017-07-21T20:11:48.019Z,-142.13
2017-07-21T20:14:13.840Z,-142.13
2017-07-21T20:16:39.702Z,-142.13
2017-07-21T20:19:05.550Z,-142.13
2017-07-21T20:21:33.435Z,-142.13
2017-07-21T20:23:59.385Z,-142.13
2017-07-21T20:26:27.200Z,-142.13
2017-07-21T20:28:53.076Z,-142.13
2017-07-21T20:31:18.902Z,-142.13
2017-07-21T20:33:44.736Z,-142.13
2017-07-21T20:36:10.585Z,-142.13
2017-07-21T20:38:36.571Z,-142.13
2017-07-21T20:41:02.417Z,-142.13
2017-07-21T20:43:28.246Z,-142.13
2017-07-21T20:45:54.196Z,-142.13
2017-07-21T20:48:20.048Z,-142.13
2017-07-21T20:50:45.908Z,-142.13
2017-07-21T20:53:11.838Z,-142.13
2017-07-21T20:55:37.651Z,-142.13
2017-07-21T20:58:03.525Z,-142.13
2017-07-21T21:00:29.365Z,-142.13
2017-07-21T21:02:55.157Z,-142.13
2017-07-21T21:05:21.057Z,-142.13
2017-07-21T21:07:46.929Z,-142.13
2017-07-21T21:10:12.845Z,-142.13
2017-07-21T21:12:38.738Z,-142.13
2017-07-21T21:15:04.582Z,-142.13
2017-07-21T21:17:30.519Z,-142.13
2017-07-21T21:19:56.368Z,-142.13
2017-07-21T21:22:22.257Z,-142.13
2017-07-21T21:24:48.941Z,-142.13
2017-07-21T21:27:14.736Z,-142.13
2017-07-21T21:29:40.563Z,-142.13
2017-07-21T21:32:06.540Z,-142.13
2017-07-21T21:34:32.409Z,-142.13
2017-07-21T21:36:58.223Z,-142.13
2017-07-21T21:39:24.068Z,-142.13
2017-07-21T21:41:49.849Z,-142.13
2017-07-21T21:44:15.671Z,-142.13
2017-07-21T21:46:41.547Z,-142.13
2017-07-21T21:49:07.347Z,-142.13
2017-07-21T21:51:33.133Z,-142.13
2017-07-21T21:53:58.966Z,-142.13
2017-07-21T21:56:24.778Z,-142.13
2017-07-21T21:58:50.691Z,-142.13
2017-07-21T22:01:16.601Z,-142.13
2017-07-21T22:03:42.402Z,-142.13
2017-07-21T22:06:08.237Z,-142.13
2017-07-21T22:08:34.080Z,-142.13
2017-07-21T22:10:59.876Z,-142.13
2017-07-21T22:13:25.693Z,-142.13
2017-07-21T22:15:54.440Z,-142.13
2017-07-21T22:18:20.385Z,-142.13
2017-07-21T22:20:46.305Z,-142.13
2017-07-21T22:23:12.136Z,-142.13
2017-07-21T22:25:38.061Z,-142.13
2017-07-21T22:28:03.903Z,-142.13
2017-07-21T22:30:29.807Z,-142.13
2017-07-21T22:32:55.736Z,-142.13
2017-07-21T22:35:21.577Z,-142.13
2017-07-21T22:37:47.376Z,-142.13
2017-07-21T22:40:13.240Z,-142.13
2017-07-21T22:42:39.078Z,-142.13
2017-07-21T22:45:05.105Z,-142.13
2017-07-21T22:47:30.941Z,-142.13
2017-07-21T22:49:56.841Z,-142.13
2017-07-21T22:52:22.730Z,-142.13
2017-07-21T22:54:48.543Z,-142.13
2017-07-21T22:57:14.369Z,-142.13
2017-07-21T22:59:40.207Z,-142.13
2017-07-21T23:02:06.029Z,-142.13
2017-07-21T23:04:32.071Z,-142.13
2017-07-21T23:06:57.937Z,-142.13
2017-07-21T23:09:23.811Z,-142.13
2017-07-21T23:11:49.716Z,-142.13
2017-07-21T23:14:15.524Z,-142.13
2017-07-21T23:16:41.391Z,-142.13
2017-07-21T23:19:07.304Z,-142.13
2017-07-21T23:21:33.153Z,-142.13
2017-07-21T23:23:59.003Z,-142.13
2017-07-21T23:26:25.852Z,-142.13
2017-07-21T23:28:51.681Z,-142.13
2017-07-21T23:31:17.765Z,-142.13
2017-07-21T23:33:43.636Z,-142.13
2017-07-21T23:36:09.484Z,-142.13
2017-07-21T23:38:35.299Z,-142.13
2017-07-21T23:41:01.114Z,-142.13
2017-07-21T23:43:26.962Z,-142.13
2017-07-21T23:45:52.831Z,-142.13
2017-07-21T23:48:18.633Z,-142.13
2017-07-21T23:50:44.460Z,-142.13
2017-07-21T23:53:10.493Z,-142.13
2017-07-21T23:55:36.448Z,-142.13
2017-07-21T23:58:02.303Z,-142.13
